createdAt,value
2023-01-17T00:02:23.027Z,5.20
2023-01-17T00:05:08.227Z,5.20
2023-01-17T00:07:53.573Z,5.20
2023-01-17T00:10:23.050Z,5.20
2023-01-17T00:12:58.451Z,5.10
2023-01-17T00:15:26.825Z,5.10
2023-01-17T00:17:54.279Z,5.10
2023-01-17T00:20:42.378Z,5.10
2023-01-17T00:23:41.867Z,5.10
2023-01-17T00:26:18.258Z,5.10
2023-01-17T00:28:45.580Z,5.00
2023-01-17T00:31:14.326Z,5.10
2023-01-17T00:33:41.335Z,5.10
2023-01-17T00:36:09.319Z,5.10
2023-01-17T00:38:37.387Z,5.10
2023-01-17T00:41:13.627Z,5.00
2023-01-17T00:43:59.263Z,5.10
2023-01-17T00:46:44.786Z,5.20
2023-01-17T00:49:30.223Z,5.20
2023-01-17T00:52:15.610Z,5.20
2023-01-17T00:55:01.123Z,5.40
2023-01-17T00:57:46.620Z,5.20
2023-01-17T01:00:32.787Z,5.30
2023-01-17T01:03:17.914Z,5.30
2023-01-17T01:06:03.371Z,5.30
2023-01-17T01:08:49.062Z,5.30
2023-01-17T01:11:37.998Z,5.30
2023-01-17T01:14:25.160Z,5.30
2023-01-17T01:17:10.695Z,5.40
2023-01-17T01:19:56.008Z,5.30
2023-01-17T01:22:41.557Z,5.30
2023-01-17T01:25:27.270Z,5.30
2023-01-17T01:28:20.831Z,5.40
2023-01-17T01:31:06.259Z,5.40
2023-01-17T01:33:32.944Z,5.40
2023-01-17T01:35:59.691Z,5.40
2023-01-17T01:38:26.514Z,5.40
2023-01-17T01:40:56.358Z,5.40
2023-01-17T01:43:41.498Z,5.40
2023-01-17T01:46:16.333Z,5.40
2023-01-17T01:49:03.279Z,5.40
2023-01-17T01:51:38.488Z,5.40
2023-01-17T01:54:14.106Z,5.40
2023-01-17T01:56:41.546Z,5.40
2023-01-17T01:59:11.307Z,5.40
2023-01-17T02:01:38.198Z,5.40
2023-01-17T02:04:09.845Z,5.40
2023-01-17T02:06:45.071Z,5.50
2023-01-17T02:09:14.381Z,5.40
2023-01-17T02:11:41.580Z,5.50
2023-01-17T02:14:09.165Z,5.50
2023-01-17T02:16:59.837Z,5.50
2023-01-17T02:20:04.261Z,5.50
2023-01-17T02:22:30.928Z,5.50
2023-01-17T02:25:09.319Z,5.50
2023-01-17T02:27:38.737Z,5.50
2023-01-17T02:30:24.196Z,5.50
2023-01-17T02:33:05.473Z,5.50
2023-01-17T02:36:10.336Z,5.50
2023-01-17T02:38:44.608Z,5.50
2023-01-17T02:41:24.983Z,5.50
2023-01-17T02:43:52.470Z,5.50
2023-01-17T02:46:19.225Z,5.50
2023-01-17T02:48:47.316Z,5.50
2023-01-17T02:51:27.322Z,5.50
2023-01-17T02:54:06.209Z,5.50
2023-01-17T02:57:08.403Z,5.50
2023-01-17T02:59:40.830Z,5.50
2023-01-17T03:02:17.700Z,5.50
2023-01-17T03:04:53.263Z,5.50
2023-01-17T03:07:24.603Z,5.50
2023-01-17T03:09:56.157Z,5.50
2023-01-17T03:12:22.847Z,5.50
2023-01-17T03:14:49.753Z,5.50
2023-01-17T03:17:16.843Z,5.50
2023-01-17T03:19:43.538Z,5.50
2023-01-17T03:22:10.199Z,5.50
2023-01-17T03:24:37.235Z,5.50
2023-01-17T03:27:04.057Z,5.50
2023-01-17T03:29:30.900Z,5.50
2023-01-17T03:31:58.295Z,5.50
2023-01-17T03:34:24.972Z,5.50
2023-01-17T03:36:51.647Z,5.50
2023-01-17T03:39:18.329Z,5.50
2023-01-17T03:41:44.969Z,5.50
2023-01-17T03:44:11.653Z,5.50
2023-01-17T03:46:38.335Z,5.30
2023-01-17T03:49:05.040Z,5.20
2023-01-17T03:51:31.757Z,5.10
2023-01-17T03:53:58.462Z,5.10
2023-01-17T03:56:25.269Z,5.00
2023-01-17T03:58:51.902Z,4.90
2023-01-17T04:01:19.139Z,4.80
2023-01-17T04:03:45.901Z,4.70
2023-01-17T04:06:12.604Z,4.80
2023-01-17T04:08:39.323Z,4.70
2023-01-17T04:11:06.079Z,4.60
2023-01-17T04:13:32.757Z,4.60
2023-01-17T04:15:59.618Z,4.60
2023-01-17T04:18:26.778Z,4.60
2023-01-17T04:20:53.493Z,4.70
2023-01-17T04:23:20.527Z,4.70
2023-01-17T04:25:47.346Z,4.70
2023-01-17T04:28:14.610Z,4.70
2023-01-17T04:30:41.466Z,4.70
2023-01-17T04:33:08.262Z,4.80
2023-01-17T04:35:35.135Z,4.80
2023-01-17T04:38:04.580Z,4.80
2023-01-17T04:40:31.343Z,4.80
2023-01-17T04:42:58.282Z,4.80
2023-01-17T04:45:25.341Z,4.80
2023-01-17T04:47:52.078Z,4.80
2023-01-17T04:50:18.923Z,4.80
2023-01-17T04:52:45.762Z,4.80
2023-01-17T04:55:12.454Z,4.80
2023-01-17T04:57:39.149Z,4.80
2023-01-17T05:00:06.440Z,4.80
2023-01-17T05:02:33.302Z,4.80
2023-01-17T05:05:00.252Z,4.80
2023-01-17T05:07:27.068Z,4.80
2023-01-17T05:09:53.741Z,4.80
2023-01-17T05:12:20.567Z,4.80
2023-01-17T05:14:47.308Z,4.80
2023-01-17T05:17:14.033Z,4.80
2023-01-17T05:19:40.706Z,4.80
2023-01-17T05:22:15.364Z,4.80
2023-01-17T05:24:46.289Z,4.80
2023-01-17T05:27:14.215Z,4.80
2023-01-17T05:29:41.250Z,4.80
2023-01-17T05:32:08.062Z,4.80
2023-01-17T05:34:35.004Z,4.80
2023-01-17T05:37:01.782Z,4.70
2023-01-17T05:39:28.624Z,4.70
2023-01-17T05:41:55.349Z,4.70
2023-01-17T05:44:22.204Z,4.70
2023-01-17T05:46:48.835Z,4.70
2023-01-17T05:49:15.535Z,4.70
2023-01-17T05:51:42.337Z,4.70
2023-01-17T05:54:09.013Z,4.70
2023-01-17T05:56:35.817Z,4.70
2023-01-17T05:59:02.743Z,4.70
2023-01-17T06:01:29.624Z,4.70
2023-01-17T06:03:56.378Z,4.70
2023-01-17T06:06:23.142Z,4.80
2023-01-17T06:08:49.843Z,4.70
2023-01-17T06:11:17.915Z,4.70
2023-01-17T06:13:44.735Z,4.70
2023-01-17T06:16:11.503Z,4.60
2023-01-17T06:18:38.254Z,4.60
2023-01-17T06:21:05.119Z,4.60
2023-01-17T06:23:32.067Z,4.60
2023-01-17T06:26:03.649Z,4.60
2023-01-17T06:28:31.162Z,4.60
2023-01-17T06:30:57.980Z,4.50
2023-01-17T06:33:24.688Z,4.50
2023-01-17T06:35:52.980Z,4.50
2023-01-17T06:38:19.734Z,4.40
2023-01-17T06:40:46.489Z,4.40
2023-01-17T06:43:13.315Z,4.40
2023-01-17T06:45:40.096Z,4.40
2023-01-17T06:48:07.322Z,4.40
2023-01-17T06:50:34.405Z,4.30
2023-01-17T06:53:04.291Z,4.30
2023-01-17T06:55:33.888Z,4.30
2023-01-17T06:58:02.790Z,4.30
2023-01-17T07:00:30.910Z,4.30
2023-01-17T07:02:57.971Z,4.30
2023-01-17T07:05:25.193Z,4.30
2023-01-17T07:07:53.127Z,4.30
2023-01-17T07:10:20.209Z,4.30
2023-01-17T07:12:47.247Z,4.30
2023-01-17T07:15:14.419Z,4.30
2023-01-17T07:17:41.280Z,4.30
2023-01-17T07:20:08.818Z,4.20
2023-01-17T07:22:37.583Z,4.30
2023-01-17T07:25:04.919Z,4.30
2023-01-17T07:27:33.426Z,4.30
2023-01-17T07:30:00.628Z,4.30
2023-01-17T07:32:27.982Z,4.30
2023-01-17T07:34:57.408Z,4.30
2023-01-17T07:37:25.927Z,4.30
2023-01-17T07:39:53.789Z,4.30
2023-01-17T07:42:23.218Z,4.30
2023-01-17T07:44:50.688Z,4.30
2023-01-17T07:47:17.507Z,4.30
2023-01-17T07:49:44.277Z,4.30
2023-01-17T07:52:11.107Z,4.30
2023-01-17T07:54:37.913Z,4.30
2023-01-17T07:57:04.549Z,4.30
2023-01-17T07:59:33.711Z,4.30
2023-01-17T08:02:00.778Z,4.30
2023-01-17T08:04:27.701Z,4.30
2023-01-17T08:06:55.095Z,4.30
2023-01-17T08:09:22.096Z,4.30
2023-01-17T08:11:49.015Z,4.30
2023-01-17T08:14:15.919Z,4.30
2023-01-17T08:16:42.901Z,4.30
2023-01-17T08:19:10.635Z,4.30
2023-01-17T08:21:37.655Z,4.30
2023-01-17T08:24:05.101Z,4.40
2023-01-17T08:26:31.838Z,4.40
2023-01-17T08:29:02.765Z,4.40
2023-01-17T08:31:34.935Z,4.40
2023-01-17T08:34:01.771Z,4.50
2023-01-17T08:36:28.877Z,4.50
2023-01-17T08:38:55.959Z,4.60
2023-01-17T08:41:24.446Z,4.60
2023-01-17T08:43:52.218Z,4.70
2023-01-17T08:46:19.726Z,4.70
2023-01-17T08:48:46.629Z,4.70
2023-01-17T08:51:13.632Z,4.70
2023-01-17T08:53:40.719Z,4.80
2023-01-17T08:56:07.810Z,4.80
2023-01-17T08:58:35.907Z,4.90
2023-01-17T09:01:04.941Z,4.90
2023-01-17T09:03:32.813Z,4.90
2023-01-17T09:06:09.579Z,5.00
2023-01-17T09:08:36.816Z,5.00
2023-01-17T09:11:09.062Z,5.10
2023-01-17T09:13:36.246Z,5.10
2023-01-17T09:16:03.649Z,5.20
2023-01-17T09:18:31.473Z,5.30
2023-01-17T09:20:59.369Z,5.50
2023-01-17T09:23:27.889Z,5.60
2023-01-17T09:25:59.895Z,5.70
2023-01-17T09:28:27.935Z,5.80
2023-01-17T09:30:55.091Z,6.10
2023-01-17T09:33:24.385Z,6.20
2023-01-17T09:35:51.212Z,6.60
2023-01-17T09:38:17.999Z,7.00
2023-01-17T09:40:47.432Z,7.50
2023-01-17T09:43:26.662Z,7.70
2023-01-17T09:45:53.523Z,8.00
2023-01-17T09:48:38.741Z,8.20
2023-01-17T09:51:24.158Z,8.50
2023-01-17T09:53:52.738Z,8.80
2023-01-17T09:56:31.107Z,9.10
2023-01-17T09:59:40.808Z,9.20
2023-01-17T10:02:41.833Z,9.30
2023-01-17T10:05:50.171Z,9.60
2023-01-17T10:08:34.359Z,9.80
2023-01-17T10:11:28.991Z,10.10
2023-01-17T10:14:04.604Z,10.40
2023-01-17T10:17:04.012Z,10.60
2023-01-17T10:19:40.330Z,10.70
2023-01-17T10:22:25.781Z,10.90
2023-01-17T10:25:21.579Z,11.10
2023-01-17T10:28:04.411Z,11.30
2023-01-17T10:30:43.384Z,11.50
2023-01-17T10:33:21.205Z,11.70
2023-01-17T10:36:03.717Z,11.80
2023-01-17T10:38:35.956Z,11.90
2023-01-17T10:41:17.760Z,11.90
2023-01-17T10:44:03.880Z,12.00
2023-01-17T10:46:38.788Z,11.80
2023-01-17T10:49:05.580Z,11.60
2023-01-17T10:51:44.121Z,11.40
2023-01-17T10:54:25.908Z,11.30
2023-01-17T10:56:52.823Z,11.30
2023-01-17T10:59:33.578Z,11.30
2023-01-17T11:02:06.768Z,11.30
2023-01-17T11:04:39.923Z,11.40
2023-01-17T11:07:23.402Z,11.40
2023-01-17T11:09:55.717Z,11.30
2023-01-17T11:12:40.062Z,11.30
2023-01-17T11:15:22.746Z,11.20
2023-01-17T11:17:59.992Z,11.20
2023-01-17T11:20:38.337Z,11.10
2023-01-17T11:23:07.072Z,11.00
2023-01-17T11:25:34.413Z,10.70
2023-01-17T11:28:04.944Z,10.60
2023-01-17T11:30:31.765Z,10.50
2023-01-17T11:33:00.739Z,10.40
2023-01-17T11:35:32.845Z,10.30
2023-01-17T11:38:02.321Z,10.30
2023-01-17T11:40:33.292Z,10.10
2023-01-17T11:43:25.456Z,10.00
2023-01-17T11:46:05.831Z,10.00
2023-01-17T11:48:39.249Z,9.80
2023-01-17T11:51:22.821Z,9.70
2023-01-17T11:53:49.740Z,9.70
2023-01-17T11:56:32.953Z,9.60
2023-01-17T11:59:37.345Z,9.50
2023-01-17T12:02:10.020Z,9.40
2023-01-17T12:04:52.450Z,9.50
2023-01-17T12:07:43.367Z,9.70
2023-01-17T12:10:38.317Z,9.90
2023-01-17T12:13:53.434Z,10.10
2023-01-17T12:16:43.603Z,10.10
2023-01-17T12:19:48.903Z,10.10
2023-01-17T12:22:58.333Z,10.20
2023-01-17T12:25:55.649Z,10.30
2023-01-17T12:29:05.433Z,10.50
2023-01-17T12:31:43.127Z,10.50
2023-01-17T12:34:28.539Z,10.70
2023-01-17T12:36:58.607Z,10.80
2023-01-17T12:39:33.117Z,10.80
2023-01-17T12:42:06.128Z,10.80
2023-01-17T12:44:56.055Z,10.90
2023-01-17T12:47:22.916Z,10.80
2023-01-17T12:50:26.974Z,10.90
2023-01-17T12:53:03.201Z,10.70
2023-01-17T12:55:47.469Z,10.50
2023-01-17T12:58:22.596Z,10.50
2023-01-17T13:00:56.454Z,10.50
2023-01-17T13:03:55.550Z,10.40
2023-01-17T13:06:56.676Z,10.20
2023-01-17T13:09:24.570Z,9.90
2023-01-17T13:12:05.941Z,9.80
2023-01-17T13:14:32.899Z,9.60
2023-01-17T13:17:03.635Z,9.40
2023-01-17T13:19:48.722Z,9.30
2023-01-17T13:22:18.637Z,9.20
2023-01-17T13:24:52.094Z,9.10
2023-01-17T13:27:29.017Z,9.00
2023-01-17T13:30:23.837Z,8.90
2023-01-17T13:33:09.229Z,8.70
2023-01-17T13:35:50.998Z,8.60
2023-01-17T13:38:39.450Z,8.50
2023-01-17T13:41:31.554Z,8.50
2023-01-17T13:44:18.933Z,8.40
2023-01-17T13:47:02.872Z,8.30
2023-01-17T13:49:30.156Z,8.30
2023-01-17T13:52:28.512Z,8.30
2023-01-17T13:54:57.583Z,8.30
2023-01-17T13:57:50.987Z,8.30
2023-01-17T14:00:26.343Z,8.20
2023-01-17T14:02:55.444Z,8.10
2023-01-17T14:05:42.328Z,8.00
2023-01-17T14:08:20.630Z,8.00
2023-01-17T14:10:53.152Z,8.00
2023-01-17T14:13:28.692Z,8.00
2023-01-17T14:15:55.561Z,7.90
2023-01-17T14:18:48.963Z,7.90
2023-01-17T14:21:35.529Z,7.90
2023-01-17T14:24:09.587Z,7.90
2023-01-17T14:26:43.573Z,7.80
2023-01-17T14:29:42.809Z,7.90
2023-01-17T14:32:35.338Z,7.80
2023-01-17T14:35:02.878Z,7.80
2023-01-17T14:37:51.091Z,7.70
2023-01-17T14:40:26.364Z,7.70
2023-01-17T14:43:25.161Z,7.60
2023-01-17T14:46:07.987Z,7.60
2023-01-17T14:48:39.301Z,7.60
2023-01-17T14:51:13.720Z,7.60
2023-01-17T14:53:51.830Z,7.50
2023-01-17T14:56:18.647Z,7.60
2023-01-17T14:58:48.486Z,7.60
2023-01-17T15:01:18.329Z,7.60
2023-01-17T15:03:53.946Z,7.60
2023-01-17T15:06:41.600Z,7.60
2023-01-17T15:09:16.403Z,7.60
2023-01-17T15:11:44.543Z,7.60
2023-01-17T15:14:23.736Z,7.50
2023-01-17T15:16:52.080Z,7.50
2023-01-17T15:19:20.089Z,7.50
2023-01-17T15:21:50.735Z,7.50
2023-01-17T15:24:27.549Z,7.50
2023-01-17T15:26:54.718Z,7.50
2023-01-17T15:29:25.667Z,7.40
2023-01-17T15:31:58.158Z,7.40
2023-01-17T15:34:30.490Z,7.40
2023-01-17T15:37:02.392Z,7.30
2023-01-17T15:39:34.996Z,7.40
2023-01-17T15:42:20.268Z,7.30
2023-01-17T15:44:52.700Z,7.30
2023-01-17T15:47:40.451Z,7.30
2023-01-17T15:50:30.101Z,7.30
2023-01-17T15:53:02.984Z,7.20
2023-01-17T15:55:48.079Z,7.20
2023-01-17T15:58:27.322Z,7.20
2023-01-17T16:00:54.810Z,7.20
2023-01-17T16:03:21.903Z,7.20
2023-01-17T16:05:49.673Z,7.20
2023-01-17T16:08:16.479Z,7.20
2023-01-17T16:10:44.604Z,7.20
2023-01-17T16:13:13.556Z,7.10
2023-01-17T16:15:43.237Z,7.10
2023-01-17T16:18:17.890Z,7.10
2023-01-17T16:20:47.762Z,7.10
2023-01-17T16:23:14.732Z,7.10
2023-01-17T16:25:41.605Z,7.10
2023-01-17T16:28:08.416Z,7.10
2023-01-17T16:30:35.318Z,7.00
2023-01-17T16:33:03.893Z,7.10
2023-01-17T16:35:32.915Z,7.00
2023-01-17T16:38:05.569Z,7.00
2023-01-17T16:40:38.392Z,7.00
2023-01-17T16:43:05.223Z,7.00
2023-01-17T16:45:38.983Z,7.00
2023-01-17T16:48:06.109Z,7.00
2023-01-17T16:50:32.948Z,7.00
2023-01-17T16:52:59.654Z,7.00
2023-01-17T16:55:26.625Z,7.00
2023-01-17T16:57:57.386Z,7.00
2023-01-17T17:00:24.477Z,6.90
2023-01-17T17:02:52.101Z,6.90
2023-01-17T17:05:19.626Z,6.90
2023-01-17T17:07:50.783Z,6.90
2023-01-17T17:10:19.879Z,6.90
2023-01-17T17:12:47.671Z,6.90
2023-01-17T17:15:14.684Z,6.80
2023-01-17T17:17:43.341Z,6.80
2023-01-17T17:20:12.993Z,6.80
2023-01-17T17:22:48.968Z,6.70
2023-01-17T17:25:16.130Z,6.50
2023-01-17T17:27:43.377Z,6.60
2023-01-17T17:30:11.112Z,6.60
2023-01-17T17:32:37.855Z,6.50
2023-01-17T17:35:05.650Z,6.40
2023-01-17T17:37:32.395Z,6.40
2023-01-17T17:39:59.084Z,6.30
2023-01-17T17:42:26.295Z,6.20
2023-01-17T17:44:54.717Z,6.10
2023-01-17T17:47:21.537Z,6.10
2023-01-17T17:49:48.359Z,6.00
2023-01-17T17:52:15.031Z,6.00
2023-01-17T17:54:41.816Z,5.90
2023-01-17T17:57:09.541Z,5.80
2023-01-17T17:59:36.306Z,5.80
2023-01-17T18:02:03.136Z,5.70
2023-01-17T18:04:29.954Z,5.70
2023-01-17T18:06:59.803Z,5.60
2023-01-17T18:09:26.657Z,5.60
2023-01-17T18:11:53.528Z,5.60
2023-01-17T18:14:23.827Z,5.60
2023-01-17T18:16:51.088Z,5.60
2023-01-17T18:19:21.614Z,5.60
2023-01-17T18:21:50.433Z,5.60
2023-01-17T18:24:22.483Z,5.60
2023-01-17T18:26:57.640Z,5.60
2023-01-17T18:29:26.400Z,5.60
2023-01-17T18:31:54.146Z,5.60
2023-01-17T18:34:24.268Z,5.60
2023-01-17T18:36:51.839Z,5.60
2023-01-17T18:39:27.822Z,5.00
2023-01-17T18:41:54.963Z,5.60
2023-01-17T18:44:22.462Z,5.60
2023-01-17T18:46:50.411Z,5.60
2023-01-17T18:49:19.295Z,5.60
2023-01-17T18:51:50.399Z,5.60
2023-01-17T18:54:18.841Z,5.60
2023-01-17T18:56:45.755Z,5.60
2023-01-17T18:59:18.434Z,5.60
2023-01-17T19:01:45.909Z,5.60
2023-01-17T19:04:14.426Z,5.60
2023-01-17T19:06:44.897Z,5.50
2023-01-17T19:09:13.744Z,5.50
2023-01-17T19:11:40.813Z,5.50
2023-01-17T19:14:07.778Z,5.50
2023-01-17T19:16:39.275Z,5.50
2023-01-17T19:19:08.356Z,5.40
2023-01-17T19:21:35.671Z,5.40
2023-01-17T19:24:02.483Z,5.40
2023-01-17T19:26:30.230Z,5.40
2023-01-17T19:28:58.921Z,5.40
2023-01-17T19:31:29.099Z,5.40
2023-01-17T19:33:58.382Z,5.40
2023-01-17T19:36:33.955Z,5.40
2023-01-17T19:39:06.132Z,5.40
2023-01-17T19:41:42.054Z,6.60
2023-01-17T19:44:10.974Z,5.40
2023-01-17T19:46:38.336Z,5.40
2023-01-17T19:49:07.810Z,5.40
2023-01-17T19:51:35.127Z,5.30
2023-01-17T19:54:04.234Z,5.30
2023-01-17T19:56:31.520Z,5.30
2023-01-17T19:59:01.340Z,5.30
2023-01-17T20:01:31.315Z,5.30
2023-01-17T20:03:59.273Z,5.30
2023-01-17T20:06:32.062Z,5.30
2023-01-17T20:08:59.417Z,5.30
2023-01-17T20:11:27.894Z,5.20
2023-01-17T20:13:56.853Z,5.30
2023-01-17T20:16:27.478Z,5.30
2023-01-17T20:18:54.650Z,5.30
2023-01-17T20:21:24.280Z,5.20
2023-01-17T20:23:52.267Z,5.20
2023-01-17T20:26:22.200Z,5.20
2023-01-17T20:28:51.466Z,5.20
2023-01-17T20:31:21.212Z,5.20
2023-01-17T20:33:50.399Z,5.20
2023-01-17T20:36:18.810Z,5.20
2023-01-17T20:38:46.498Z,5.10
2023-01-17T20:41:21.320Z,5.20
2023-01-17T20:43:51.041Z,5.10
2023-01-17T20:46:19.131Z,5.10
2023-01-17T20:48:52.095Z,5.10
2023-01-17T20:51:20.293Z,5.10
2023-01-17T20:53:52.757Z,5.10
2023-01-17T20:56:20.942Z,5.10
2023-01-17T20:58:49.577Z,5.10
2023-01-17T21:01:19.230Z,5.10
2023-01-17T21:03:48.076Z,5.10
2023-01-17T21:06:15.619Z,5.10
2023-01-17T21:08:44.254Z,5.10
2023-01-17T21:11:12.810Z,5.10
2023-01-17T21:13:40.110Z,5.10
2023-01-17T21:16:09.305Z,5.10
2023-01-17T21:18:36.569Z,5.10
2023-01-17T21:21:07.354Z,5.10
2023-01-17T21:23:35.224Z,5.10
2023-01-17T21:26:02.043Z,5.10
2023-01-17T21:28:30.674Z,5.10
2023-01-17T21:30:58.205Z,5.10
2023-01-17T21:33:27.081Z,5.10
2023-01-17T21:35:54.141Z,5.10
2023-01-17T21:38:22.459Z,5.10
2023-01-17T21:40:49.201Z,5.10
2023-01-17T21:43:16.008Z,5.10
2023-01-17T21:45:43.142Z,5.10
2023-01-17T21:48:14.595Z,5.10
2023-01-17T21:50:41.332Z,5.10
2023-01-17T21:53:09.973Z,5.10
2023-01-17T21:55:56.238Z,5.10
2023-01-17T21:58:41.725Z,5.10
2023-01-17T22:01:22.143Z,5.00
2023-01-17T22:03:51.744Z,5.00
2023-01-17T22:06:20.618Z,5.00
2023-01-17T22:08:47.645Z,5.10
2023-01-17T22:11:16.402Z,5.10
2023-01-17T22:13:44.893Z,5.00
2023-01-17T22:16:17.883Z,5.00
2023-01-17T22:18:45.417Z,5.00
2023-01-17T22:21:15.246Z,5.00
2023-01-17T22:23:53.725Z,5.00
2023-01-17T22:26:22.559Z,5.00
2023-01-17T22:28:49.327Z,5.00
2023-01-17T22:31:25.884Z,4.90
2023-01-17T22:33:58.298Z,4.90
2023-01-17T22:36:26.015Z,4.90
2023-01-17T22:38:53.127Z,4.90
2023-01-17T22:41:27.902Z,4.90
2023-01-17T22:43:58.455Z,4.90
2023-01-17T22:46:28.246Z,4.90
2023-01-17T22:48:55.892Z,4.90
2023-01-17T22:51:24.888Z,4.90
2023-01-17T22:53:54.801Z,4.90
2023-01-17T22:56:24.322Z,4.90
2023-01-17T22:58:51.137Z,4.90
2023-01-17T23:01:26.863Z,4.90
2023-01-17T23:03:56.148Z,4.90
2023-01-17T23:06:44.373Z,4.90
2023-01-17T23:09:14.370Z,4.90
2023-01-17T23:11:50.645Z,4.80
2023-01-17T23:14:19.344Z,4.80
2023-01-17T23:17:08.931Z,4.80
2023-01-17T23:19:39.967Z,4.80
2023-01-17T23:22:16.246Z,4.80
2023-01-17T23:24:47.622Z,4.70
2023-01-17T23:27:37.557Z,4.80
2023-01-17T23:30:13.346Z,4.80
2023-01-17T23:32:45.880Z,4.80
2023-01-17T23:35:12.833Z,4.70
2023-01-17T23:37:58.200Z,4.70
2023-01-17T23:40:25.199Z,4.70
2023-01-17T23:43:10.381Z,4.80
2023-01-17T23:45:38.797Z,4.70
2023-01-17T23:48:09.725Z,4.70
2023-01-17T23:50:38.906Z,4.80
2023-01-17T23:53:08.725Z,4.70
2023-01-17T23:55:40.607Z,4.80
2023-01-17T23:58:09.162Z,4.80
